Time;durP1;ratioP1;P1;durP2;ratioP2;P2;SDS_P1;SDS_P2;PMS_P1;PMS_P2;Temp;Humidity;BMP_temperature;BMP_pressure;BME280_temperature;BME280_humidity;BME280_pressure;Samples;Min_cycle;Max_cycle;Signal;HPM_P1;HPM_P2
2024/04/14 00:01:57;;;;;;;5.55;4.80;;;10.10;99.90;;;;;;5367515;26;20019;-71
2024/04/14 00:04:22;;;;;;;6.57;4.95;;;9.60;99.90;;;;;;5365229;26;20019;-72
2024/04/14 00:06:49;;;;;;;5.47;4.80;;;9.20;99.90;;;;;;5361483;26;20001;-72
2024/04/14 00:09:14;;;;;;;6.50;4.70;;;9.30;99.90;;;;;;5367096;26;20012;-73
2024/04/14 00:11:40;;;;;;;5.55;4.35;;;9.60;99.90;;;;;;5363392;26;20004;-71
2024/04/14 00:14:06;;;;;;;5.65;4.75;;;9.70;99.90;;;;;;5365392;26;20000;-72
2024/04/14 00:16:31;;;;;;;6.93;4.25;;;9.80;99.90;;;;;;5359021;26;19996;-73
2024/04/14 00:18:57;;;;;;;8.45;4.43;;;9.90;99.90;;;;;;5373457;26;20004;-71
2024/04/14 00:21:23;;;;;;;6.88;4.63;;;9.80;99.90;;;;;;5370894;26;20036;-71
2024/04/14 00:23:49;;;;;;;4.68;4.22;;;9.80;99.90;;;;;;5358998;26;20008;-71
2024/04/14 00:26:15;;;;;;;6.70;4.22;;;9.80;99.90;;;;;;5367611;26;20000;-71
2024/04/14 00:28:41;;;;;;;5.55;5.05;;;9.70;99.90;;;;;;5368726;26;20060;-71
2024/04/14 00:31:07;;;;;;;8.57;4.85;;;9.60;99.90;;;;;;5373841;26;19996;-71
2024/04/14 00:33:34;;;;;;;5.05;4.50;;;9.40;99.90;;;;;;5370833;26;20011;-71
2024/04/14 00:36:03;;;;;;;6.05;4.97;;;9.10;99.90;;;;;;5368416;26;20081;-71
2024/04/14 00:38:29;;;;;;;6.18;5.22;;;8.90;99.90;;;;;;5364195;26;19997;-71
2024/04/14 00:40:55;;;;;;;7.25;4.90;;;9.00;99.90;;;;;;5365578;26;20040;-71
2024/04/14 00:43:21;;;;;;;7.88;4.40;;;9.10;99.90;;;;;;5362855;26;20308;-72
2024/04/14 00:45:47;;;;;;;6.90;4.70;;;9.20;99.90;;;;;;5373866;26;20073;-72
2024/04/14 00:48:13;;;;;;;7.97;5.05;;;9.40;99.90;;;;;;5368459;26;19996;-71
2024/04/14 00:50:40;;;;;;;8.32;4.95;;;9.40;99.90;;;;;;5361639;26;20008;-71
2024/04/14 00:53:07;;;;;;;6.00;4.60;;;9.50;99.90;;;;;;5363220;26;20009;-72
2024/04/14 00:55:34;;;;;;;9.55;5.43;;;9.40;99.90;;;;;;5369120;26;20446;-74
2024/04/14 00:58:01;;;;;;;5.05;4.30;;;9.50;99.90;;;;;;5388316;26;20050;-70
2024/04/14 01:00:27;;;;;;;5.03;4.22;;;9.50;99.90;;;;;;5377120;26;20047;-72
2024/04/14 01:02:55;;;;;;;7.88;4.43;;;9.50;99.90;;;;;;5385377;26;20019;-72
2024/04/14 01:05:24;;;;;;;6.13;4.25;;;9.50;99.90;;;;;;5396610;26;20450;-73
2024/04/14 01:07:54;;;;;;;6.03;4.30;;;9.40;99.90;;;;;;5366870;26;19996;-71
2024/04/14 01:10:21;;;;;;;6.70;4.72;;;9.30;99.90;;;;;;5367545;26;20008;-70
2024/04/14 01:12:46;;;;;;;6.40;4.60;;;9.30;99.90;;;;;;5372298;26;20012;-72
2024/04/14 01:15:12;;;;;;;6.05;4.97;;;9.30;99.90;;;;;;5367612;26;20548;-72
2024/04/14 01:17:37;;;;;;;4.88;4.38;;;9.30;99.90;;;;;;5369712;26;19996;-71
2024/04/14 01:20:04;;;;;;;6.85;4.32;;;9.40;99.90;;;;;;5371362;26;20001;-71
2024/04/14 01:22:29;;;;;;;5.32;4.10;;;9.50;99.90;;;;;;5380696;26;20368;-72
2024/04/14 01:25:08;;;;;;;6.15;4.40;;;9.50;99.90;;;;;;5374509;26;20063;-72
2024/04/14 01:27:34;;;;;;;6.85;4.32;;;9.50;99.90;;;;;;5375186;26;20011;-74
2024/04/14 01:30:03;;;;;;;6.22;4.85;;;9.50;99.90;;;;;;5373889;26;20004;-71
2024/04/14 01:32:28;;;;;;;5.45;4.55;;;9.50;99.90;;;;;;5375733;26;20000;-72
2024/04/14 01:34:54;;;;;;;6.30;4.70;;;9.50;99.90;;;;;;5377828;26;20453;-72
2024/04/14 01:37:20;;;;;;;8.93;4.47;;;9.40;99.90;;;;;;5374735;26;20000;-72
2024/04/14 01:39:45;;;;;;;4.78;4.30;;;9.40;99.90;;;;;;5377627;26;20663;-72
2024/04/14 01:42:11;;;;;;;6.05;4.75;;;9.10;99.90;;;;;;5375603;26;20052;-72
2024/04/14 01:44:36;;;;;;;6.15;4.53;;;8.90;99.90;;;;;;5374695;26;19996;-73
2024/04/14 01:47:02;;;;;;;8.02;4.45;;;8.90;99.90;;;;;;5375975;26;19992;-72
2024/04/14 01:49:28;;;;;;;6.80;4.88;;;8.90;99.90;;;;;;5378541;26;20004;-72
2024/04/14 01:51:54;;;;;;;6.45;4.65;;;9.00;99.90;;;;;;5381717;26;19992;-73
2024/04/14 01:54:19;;;;;;;5.90;4.45;;;9.10;99.90;;;;;;5372859;26;20016;-73
2024/04/14 01:56:45;;;;;;;9.88;4.70;;;9.10;99.90;;;;;;5380746;26;20011;-72
2024/04/14 01:59:12;;;;;;;6.53;4.40;;;9.20;99.90;;;;;;5374096;26;20011;-74
2024/04/14 02:01:38;;;;;;;7.22;4.63;;;9.20;99.90;;;;;;5376359;26;19996;-73
2024/04/14 02:04:04;;;;;;;6.40;4.60;;;9.20;99.90;;;;;;5376865;26;20000;-73
2024/04/14 02:06:30;;;;;;;6.57;4.68;;;9.20;99.90;;;;;;5378954;26;20007;-72
2024/04/14 02:08:55;;;;;;;6.68;5.10;;;9.20;99.90;;;;;;5367464;26;20012;-72
2024/04/14 02:11:21;;;;;;;10.07;5.20;;;9.20;99.90;;;;;;5370783;26;20034;-72
2024/04/14 02:13:47;;;;;;;6.05;4.72;;;9.10;99.90;;;;;;5361672;26;21240;-73
2024/04/14 02:16:12;;;;;;;8.80;4.65;;;9.10;99.90;;;;;;5372108;26;20194;-73
2024/04/14 02:18:38;;;;;;;7.10;4.85;;;9.20;99.90;;;;;;5374731;26;19996;-73
2024/04/14 02:21:04;;;;;;;8.20;5.13;;;9.10;99.90;;;;;;5369393;26;20000;-71
2024/04/14 02:23:30;;;;;;;6.00;5.00;;;9.00;99.90;;;;;;5368759;26;20009;-73
2024/04/14 02:25:56;;;;;;;7.57;4.85;;;8.80;99.90;;;;;;5366449;26;19993;-72
2024/04/14 02:28:22;;;;;;;6.75;4.43;;;8.50;99.90;;;;;;5371226;26;20001;-71
2024/04/14 02:30:48;;;;;;;10.82;4.40;;;8.40;99.90;;;;;;5371084;26;20014;-72
2024/04/14 02:33:13;;;;;;;9.48;4.72;;;8.20;99.90;;;;;;5370754;26;20013;-72
2024/04/14 02:35:58;;;;;;;6.65;4.43;;;8.10;99.90;;;;;;5371302;26;20007;-72
2024/04/14 02:38:24;;;;;;;8.10;5.55;;;8.00;99.90;;;;;;5370911;26;20517;-72
2024/04/14 02:40:56;;;;;;;6.82;5.13;;;7.90;99.90;;;;;;5371959;26;20000;-72
2024/04/14 02:43:22;;;;;;;7.22;5.38;;;7.90;99.90;;;;;;5378705;26;20004;-73
2024/04/14 02:45:48;;;;;;;6.57;4.80;;;7.90;99.90;;;;;;5376098;26;20011;-72
2024/04/14 02:48:13;;;;;;;9.38;5.18;;;8.00;99.90;;;;;;5372343;26;20012;-72
2024/04/14 02:50:39;;;;;;;9.07;5.60;;;8.20;99.90;;;;;;5374895;26;19996;-71
2024/04/14 02:53:04;;;;;;;8.52;4.75;;;8.20;99.90;;;;;;5372119;26;20034;-70
2024/04/14 02:55:30;;;;;;;8.25;5.47;;;8.20;99.90;;;;;;5377630;26;20033;-71
2024/04/14 02:58:01;;;;;;;7.68;5.53;;;8.30;99.90;;;;;;5375609;26;20931;-71
2024/04/14 03:00:27;;;;;;;7.25;5.00;;;8.20;99.90;;;;;;5372258;26;20004;-72
2024/04/14 03:02:53;;;;;;;5.57;4.78;;;8.30;99.90;;;;;;5375816;26;20004;-72
2024/04/14 03:05:19;;;;;;;5.72;4.88;;;8.30;99.90;;;;;;5372141;26;20000;-72
2024/04/14 03:07:44;;;;;;;6.57;4.72;;;8.40;99.90;;;;;;5374329;26;20003;-71
2024/04/14 03:10:10;;;;;;;6.75;4.65;;;8.40;99.90;;;;;;5368279;26;20005;-72
2024/04/14 03:12:36;;;;;;;5.95;5.13;;;8.40;99.90;;;;;;5374807;26;20103;-72
2024/04/14 03:15:01;;;;;;;6.43;5.40;;;8.50;99.90;;;;;;5371755;26;20012;-72
2024/04/14 03:17:27;;;;;;;7.53;5.10;;;8.50;99.90;;;;;;5374088;26;20004;-71
2024/04/14 03:19:53;;;;;;;6.65;5.00;;;8.60;99.90;;;;;;5371273;26;20001;-72
2024/04/14 03:22:19;;;;;;;6.95;5.20;;;8.60;99.90;;;;;;5365530;26;20508;-72
2024/04/14 03:24:45;;;;;;;9.90;5.43;;;8.60;99.90;;;;;;5371952;26;20000;-72
2024/04/14 03:27:10;;;;;;;8.10;5.30;;;8.60;99.90;;;;;;5367533;26;20047;-72
2024/04/14 03:29:36;;;;;;;6.30;5.70;;;8.60;99.90;;;;;;5374534;26;20000;-71
2024/04/14 03:32:02;;;;;;;6.25;4.65;;;8.60;99.90;;;;;;5375089;26;20000;-71
2024/04/14 03:34:27;;;;;;;8.45;5.82;;;8.60;99.90;;;;;;5378516;26;20477;-71
2024/04/14 03:36:55;;;;;;;7.22;5.45;;;8.60;99.90;;;;;;5372065;26;20013;-71
2024/04/14 03:39:20;;;;;;;9.25;5.80;;;8.60;99.90;;;;;;5377237;26;19996;-71
2024/04/14 03:41:46;;;;;;;6.82;4.97;;;8.60;99.90;;;;;;5376003;26;20015;-72
2024/04/14 03:44:11;;;;;;;9.00;5.20;;;8.60;99.90;;;;;;5373801;26;20007;-72
2024/04/14 03:46:37;;;;;;;10.13;5.07;;;8.70;99.90;;;;;;5375421;26;20022;-72
2024/04/14 03:49:03;;;;;;;9.00;5.00;;;8.70;99.90;;;;;;5373873;26;21657;-71
2024/04/14 03:51:28;;;;;;;6.43;4.68;;;8.70;99.90;;;;;;5372860;26;20733;-72
2024/04/14 03:53:54;;;;;;;7.22;4.80;;;8.70;99.90;;;;;;5369556;26;21234;-72
2024/04/14 03:56:20;;;;;;;7.82;5.05;;;8.70;99.90;;;;;;5376223;26;20012;-72
2024/04/14 03:58:45;;;;;;;5.90;4.47;;;8.80;99.90;;;;;;5375810;26;21438;-72
2024/04/14 04:01:11;;;;;;;7.75;4.68;;;8.70;99.90;;;;;;5370217;26;20576;-72
2024/04/14 04:03:37;;;;;;;8.93;5.25;;;8.70;99.90;;;;;;5372785;26;20022;-72
2024/04/14 04:06:03;;;;;;;6.20;4.80;;;8.70;99.90;;;;;;5371768;26;20047;-71
2024/04/14 04:08:28;;;;;;;8.18;5.10;;;8.60;99.90;;;;;;5375580;26;20007;-71
2024/04/14 04:11:05;;;;;;;6.55;5.05;;;8.60;99.90;;;;;;5368063;26;20004;-72
2024/04/14 04:13:32;;;;;;;7.93;5.20;;;8.60;99.90;;;;;;5363658;26;20004;-72
2024/04/14 04:16:07;;;;;;;7.18;5.25;;;8.60;99.90;;;;;;5361967;26;20000;-71
2024/04/14 04:18:34;;;;;;;7.70;4.70;;;8.70;99.90;;;;;;5372955;26;20880;-71
2024/04/14 04:21:07;;;;;;;6.68;4.72;;;8.60;99.90;;;;;;5373124;26;20607;-72
2024/04/14 04:23:32;;;;;;;6.82;4.95;;;8.60;99.90;;;;;;5367913;26;20449;-72
2024/04/14 04:26:00;;;;;;;8.70;4.90;;;8.70;99.90;;;;;;5372055;26;20008;-71
2024/04/14 04:28:30;;;;;;;5.65;4.55;;;8.70;99.90;;;;;;5372184;26;19996;-72
2024/04/14 04:30:56;;;;;;;6.15;3.97;;;8.70;99.90;;;;;;5374840;26;20081;-73
2024/04/14 04:33:25;;;;;;;8.10;3.72;;;8.70;99.90;;;;;;5367165;26;20004;-72
2024/04/14 04:35:55;;;;;;;6.75;4.70;;;8.70;99.90;;;;;;5370604;26;19996;-72
2024/04/14 04:38:25;;;;;;;6.90;4.80;;;8.80;99.90;;;;;;5374439;26;20007;-72
2024/04/14 04:40:51;;;;;;;7.45;4.85;;;8.80;99.90;;;;;;5373832;26;20413;-72
2024/04/14 04:43:18;;;;;;;8.55;4.47;;;8.80;99.90;;;;;;5371856;26;19997;-73
2024/04/14 04:45:43;;;;;;;7.97;4.90;;;8.80;99.90;;;;;;5371636;26;20007;-72
2024/04/14 04:48:09;;;;;;;5.78;4.22;;;8.80;99.90;;;;;;5372129;26;20005;-72
2024/04/14 04:50:35;;;;;;;7.13;4.50;;;8.80;99.90;;;;;;5377156;26;20000;-71
2024/04/14 04:53:02;;;;;;;4.75;4.28;;;8.80;99.90;;;;;;5397721;26;20044;-72
2024/04/14 04:55:28;;;;;;;7.25;4.75;;;8.90;99.90;;;;;;5369255;26;20007;-72
2024/04/14 04:57:54;;;;;;;6.15;4.22;;;8.90;99.90;;;;;;5358905;26;20000;-71
2024/04/14 05:00:19;;;;;;;6.97;4.47;;;8.90;99.90;;;;;;5365675;26;20019;-72
2024/04/14 05:02:45;;;;;;;6.03;4.13;;;8.90;99.90;;;;;;5370897;26;20016;-72
2024/04/14 05:05:11;;;;;;;8.95;5.38;;;8.90;99.90;;;;;;5370174;26;20018;-72
2024/04/14 05:07:36;;;;;;;5.70;4.20;;;8.90;99.90;;;;;;5375645;26;20019;-72
2024/04/14 05:10:02;;;;;;;6.93;4.30;;;8.90;99.90;;;;;;5364943;26;20029;-74
2024/04/14 05:12:28;;;;;;;4.90;4.00;;;8.90;99.90;;;;;;5373265;26;20450;-72
2024/04/14 05:14:54;;;;;;;7.22;4.47;;;9.00;99.90;;;;;;5367505;26;20003;-72
2024/04/14 05:17:19;;;;;;;8.52;4.30;;;9.00;99.90;;;;;;5371051;26;20004;-72
2024/04/14 05:19:45;;;;;;;7.30;4.55;;;9.10;99.90;;;;;;5370545;26;20000;-72
2024/04/14 05:22:11;;;;;;;5.60;4.22;;;9.20;99.90;;;;;;5371385;26;20000;-73
2024/04/14 05:24:36;;;;;;;7.90;4.45;;;9.20;99.90;;;;;;5363147;26;20337;-72
2024/04/14 05:27:03;;;;;;;5.28;4.13;;;9.30;99.90;;;;;;5372995;26;20000;-75
2024/04/14 05:29:30;;;;;;;7.07;4.60;;;9.30;99.90;;;;;;5380800;26;20000;-76
2024/04/14 05:31:56;;;;;;;6.78;3.50;;;9.40;99.90;;;;;;5375327;26;20000;-75
2024/04/14 05:34:21;;;;;;;6.32;4.32;;;9.50;99.90;;;;;;5371362;26;20090;-75
2024/04/14 05:36:47;;;;;;;7.38;4.25;;;9.50;99.90;;;;;;5372928;26;20008;-76
2024/04/14 05:39:13;;;;;;;10.95;4.28;;;9.50;99.90;;;;;;5373019;26;20004;-76
2024/04/14 05:41:38;;;;;;;8.52;4.30;;;9.60;99.90;;;;;;5376738;26;20008;-71
2024/04/14 05:44:04;;;;;;;6.63;4.20;;;9.60;99.90;;;;;;5369458;26;20012;-72
2024/04/14 05:46:30;;;;;;;6.10;3.90;;;9.70;99.90;;;;;;5370823;26;20012;-73
2024/04/14 05:48:56;;;;;;;6.38;4.32;;;9.70;99.90;;;;;;5374140;26;20011;-72
2024/04/14 05:51:21;;;;;;;6.03;3.40;;;9.80;99.90;;;;;;5372467;26;20000;-73
2024/04/14 05:53:48;;;;;;;6.97;4.10;;;9.90;99.90;;;;;;5371595;26;20587;-73
2024/04/14 05:56:14;;;;;;;6.70;3.90;;;10.00;99.90;;;;;;5372594;26;19996;-73
2024/04/14 05:58:40;;;;;;;4.82;4.10;;;10.00;99.90;;;;;;5353644;26;20004;-73
2024/04/14 06:01:07;;;;;;;6.18;3.63;;;10.10;99.90;;;;;;5360652;26;20012;-73
2024/04/14 06:03:33;;;;;;;4.97;4.00;;;10.20;99.90;;;;;;5376607;26;20508;-73
2024/04/14 06:06:00;;;;;;;6.10;4.05;;;10.40;99.90;;;;;;5370800;26;20178;-73
2024/04/14 06:08:26;;;;;;;6.32;3.78;;;10.50;99.90;;;;;;5369086;26;19992;-73
2024/04/14 06:10:52;;;;;;;5.55;4.40;;;10.70;99.90;;;;;;5369549;26;20011;-74
2024/04/14 06:13:17;;;;;;;5.10;4.40;;;10.90;99.90;;;;;;5372869;26;19996;-74
2024/04/14 06:15:46;;;;;;;5.93;4.18;;;11.00;99.90;;;;;;5366118;26;20012;-74
2024/04/14 06:18:12;;;;;;;5.25;4.18;;;11.20;99.90;;;;;;5372993;26;20000;-74
2024/04/14 06:20:40;;;;;;;10.25;4.82;;;11.30;99.90;;;;;;5366367;26;19997;-73
2024/04/14 06:23:06;;;;;;;5.20;4.40;;;11.60;99.90;;;;;;5363026;26;19993;-73
2024/04/14 06:25:32;;;;;;;3.78;3.30;;;11.90;99.90;;;;;;5371239;26;20000;-74
2024/04/14 06:27:58;;;;;;;4.22;3.53;;;12.00;99.90;;;;;;5373063;26;20011;-73
2024/04/14 06:30:23;;;;;;;4.50;3.42;;;12.30;99.90;;;;;;5366866;26;20011;-74
2024/04/14 06:32:50;;;;;;;5.38;3.25;;;12.60;99.90;;;;;;5371022;26;20008;-74
2024/04/14 06:35:16;;;;;;;4.97;3.10;;;12.80;99.90;;;;;;5369814;26;20024;-74
2024/04/14 06:37:41;;;;;;;4.68;2.92;;;13.00;99.90;;;;;;5374132;26;20423;-73
2024/04/14 06:40:08;;;;;;;3.28;2.70;;;13.20;99.90;;;;;;5382333;26;20008;-74
2024/04/14 06:42:33;;;;;;;4.72;2.88;;;13.40;99.90;;;;;;5376784;26;19996;-75
2024/04/14 06:44:59;;;;;;;4.13;2.72;;;13.50;99.90;;;;;;5369327;26;20000;-74
2024/04/14 06:47:25;;;;;;;3.83;2.63;;;13.80;99.90;;;;;;5373615;26;20011;-74
2024/04/14 06:49:50;;;;;;;3.97;2.58;;;14.00;99.90;;;;;;5368209;26;20036;-73
2024/04/14 06:52:16;;;;;;;3.47;2.67;;;14.20;99.90;;;;;;5374089;26;20365;-74
2024/04/14 06:54:41;;;;;;;3.25;2.60;;;14.40;99.90;;;;;;5374452;26;20000;-73
2024/04/14 06:57:07;;;;;;;4.10;3.03;;;14.60;99.90;;;;;;5373178;26;20834;-73
2024/04/14 06:59:34;;;;;;;3.72;2.80;;;14.80;99.90;;;;;;5375465;26;20018;-73
2024/04/14 07:02:00;;;;;;;3.63;2.60;;;14.90;99.90;;;;;;5376845;26;19993;-74
2024/04/14 07:04:25;;;;;;;2.95;2.45;;;15.10;99.90;;;;;;5373609;26;20011;-73
2024/04/14 07:06:51;;;;;;;6.45;2.90;;;15.20;99.90;;;;;;5376357;26;20001;-73
2024/04/14 07:09:17;;;;;;;4.47;2.60;;;15.40;99.90;;;;;;5380299;26;20073;-73
2024/04/14 07:11:42;;;;;;;3.88;2.60;;;15.60;99.90;;;;;;5379239;26;19996;-73
2024/04/14 07:14:08;;;;;;;3.13;2.67;;;15.70;99.90;;;;;;5372008;26;20004;-73
2024/04/14 07:16:33;;;;;;;4.47;2.80;;;15.90;99.90;;;;;;5379586;26;20000;-74
2024/04/14 07:18:59;;;;;;;3.25;2.42;;;16.00;99.90;;;;;;5366431;26;20015;-74
2024/04/14 07:21:25;;;;;;;2.50;2.30;;;16.20;99.90;;;;;;5369102;26;20717;-73
2024/04/14 07:23:50;;;;;;;3.50;2.50;;;16.40;99.90;;;;;;5368690;26;20001;-73
2024/04/14 07:26:16;;;;;;;3.38;2.58;;;16.50;99.90;;;;;;5373923;26;20014;-74
2024/04/14 07:28:42;;;;;;;4.45;2.28;;;16.70;99.90;;;;;;5372206;26;20004;-74
2024/04/14 07:31:07;;;;;;;2.17;1.90;;;16.80;99.90;;;;;;5373922;26;20762;-73
2024/04/14 07:33:35;;;;;;;2.72;2.42;;;16.90;99.90;;;;;;5372462;26;19993;-73
2024/04/14 07:36:47;;;;;;;5.43;2.40;;;17.10;99.90;;;;;;5372601;26;20011;-76
2024/04/14 07:39:14;;;;;;;3.70;2.10;;;17.10;99.90;;;;;;5365155;26;20023;-79
2024/04/14 07:41:42;;;;;;;2.95;2.33;;;17.30;99.90;;;;;;5373113;26;20025;-78
2024/04/14 07:44:08;;;;;;;2.28;2.05;;;17.60;99.90;;;;;;5370741;26;20081;-77
2024/04/14 07:46:33;;;;;;;4.20;2.55;;;17.70;99.90;;;;;;5366310;26;20007;-78
2024/04/14 07:48:59;;;;;;;2.90;2.20;;;17.80;99.90;;;;;;5376149;26;20000;-77
2024/04/14 07:51:25;;;;;;;2.65;2.03;;;17.90;99.90;;;;;;5371771;26;20003;-77
2024/04/14 07:53:53;;;;;;;3.47;2.15;;;18.00;97.70;;;;;;5370432;26;20020;-77
2024/04/14 07:56:19;;;;;;;3.38;2.15;;;18.10;96.40;;;;;;5364753;26;20006;-77
2024/04/14 07:58:49;;;;;;;2.65;2.00;;;18.20;96.40;;;;;;5370278;26;20008;-78
2024/04/14 08:01:15;;;;;;;2.42;1.92;;;18.30;98.40;;;;;;5374132;26;20000;-73
2024/04/14 08:03:40;;;;;;;3.65;2.20;;;18.50;95.90;;;;;;5370315;26;20019;-73
2024/04/14 08:06:06;;;;;;;3.28;2.05;;;18.60;98.10;;;;;;5365972;26;20222;-73
2024/04/14 08:08:32;;;;;;;1.92;1.75;;;18.70;97.40;;;;;;5368199;26;20085;-73
2024/04/14 08:10:58;;;;;;;5.57;2.00;;;18.90;95.30;;;;;;5361430;26;20076;-75
2024/04/14 08:13:24;;;;;;;2.42;1.92;;;18.80;92.10;;;;;;5367323;26;20055;-74
2024/04/14 08:15:49;;;;;;;2.35;1.80;;;18.90;95.30;;;;;;5369418;26;19996;-74
2024/04/14 08:18:18;;;;;;;2.95;1.90;;;19.10;93.90;;;;;;5369397;26;20022;-73
2024/04/14 08:20:45;;;;;;;2.70;1.95;;;19.10;93.50;;;;;;5359797;26;20047;-74
2024/04/14 08:23:11;;;;;;;2.30;2.03;;;19.20;90.00;;;;;;5359594;26;20862;-73
2024/04/14 08:25:39;;;;;;;2.90;2.15;;;19.40;92.10;;;;;;5376877;26;20011;-77
2024/04/14 08:28:05;;;;;;;1.95;1.85;;;19.50;90.30;;;;;;5368442;26;19992;-75
2024/04/14 08:30:31;;;;;;;2.40;2.10;;;19.50;88.40;;;;;;5372041;26;20015;-75
2024/04/14 08:32:57;;;;;;;2.15;2.00;;;19.50;88.70;;;;;;5365709;26;19992;-75
2024/04/14 08:35:22;;;;;;;2.95;1.77;;;19.60;85.80;;;;;;5362493;26;20020;-75
2024/04/14 08:37:48;;;;;;;2.35;2.15;;;19.70;88.90;;;;;;5376243;26;19996;-73
2024/04/14 08:40:14;;;;;;;3.92;1.90;;;19.80;87.60;;;;;;5367457;26;20022;-74
2024/04/14 08:42:41;;;;;;;2.50;1.88;;;19.90;87.70;;;;;;5365634;26;20051;-74
2024/04/14 08:45:10;;;;;;;2.00;1.80;;;20.10;91.10;;;;;;5366276;26;20181;-75
2024/04/14 08:47:37;;;;;;;3.38;1.80;;;20.30;89.20;;;;;;5374854;26;20000;-75
2024/04/14 08:50:03;;;;;;;2.03;1.70;;;20.60;85.00;;;;;;5373643;26;20004;-76
2024/04/14 08:52:33;;;;;;;1.95;1.85;;;20.60;91.40;;;;;;5369125;26;19993;-75
2024/04/14 08:54:58;;;;;;;3.03;1.95;;;20.60;83.70;;;;;;5371180;26;20040;-75
2024/04/14 08:57:26;;;;;;;3.70;2.17;;;20.60;76.50;;;;;;5369715;26;20322;-75
2024/04/14 08:59:57;;;;;;;1.70;1.60;;;20.50;76.30;;;;;;5367269;26;20015;-75
2024/04/14 09:02:22;;;;;;;2.25;2.05;;;20.60;80.90;;;;;;5367514;26;20020;-75
2024/04/14 09:04:49;;;;;;;1.60;1.42;;;20.80;81.50;;;;;;5370733;26;20032;-74
2024/04/14 09:07:43;;;;;;;;;;;;;;;;;;;;;
2024/04/14 09:10:28;;;;;;;1.60;1.50;;;20.70;73.10;;;;;;5366470;26;20007;-75
2024/04/14 09:12:54;;;;;;;1.77;1.60;;;20.90;72.50;;;;;;5372921;26;20115;-74
2024/04/14 09:15:21;;;;;;;1.85;1.58;;;21.00;72.60;;;;;;5379257;26;20202;-74
2024/04/14 09:18:13;;;;;;;;;;;;;;;;;;;;;
2024/04/14 09:20:39;;;;;;;2.50;1.73;;;21.10;75.70;;;;;;5368000;26;20003;-75
2024/04/14 09:23:06;;;;;;;2.35;1.70;;;21.20;78.00;;;;;;5371720;26;19996;-75
2024/04/14 09:25:33;;;;;;;1.70;1.60;;;21.30;73.60;;;;;;5368142;26;20081;-75
2024/04/14 09:28:11;;;;;;;2.75;1.60;;;21.40;73.10;;;;;;5369540;26;20000;-75
2024/04/14 09:30:40;;;;;;;1.55;1.45;;;21.60;75.80;;;;;;5371344;26;20003;-75
2024/04/14 09:33:09;;;;;;;1.95;1.50;;;21.60;69.10;;;;;;5363448;26;19997;-73
2024/04/14 09:35:35;;;;;;;2.03;1.50;;;21.80;67.70;;;;;;5368534;26;20059;-74
2024/04/14 09:38:00;;;;;;;2.05;1.50;;;21.90;69.40;;;;;;5362439;26;20012;-73
2024/04/14 09:40:27;;;;;;;3.33;1.35;;;21.90;80.80;;;;;;5366456;26;20028;-73
2024/04/14 09:42:55;;;;;;;0.90;0.90;;;21.90;64.50;;;;;;5365867;26;20011;-73
2024/04/14 09:45:23;;;;;;;2.80;1.40;;;21.90;59.50;;;;;;5370815;26;20020;-74
2024/04/14 09:47:52;;;;;;;1.45;1.35;;;21.80;74.70;;;;;;5367428;26;20378;-74
2024/04/14 09:50:23;;;;;;;1.88;1.30;;;21.70;56.70;;;;;;5373408;26;19996;-74
2024/04/14 09:52:52;;;;;;;2.13;1.60;;;21.70;59.80;;;;;;5372207;26;20226;-74
2024/04/14 09:55:19;;;;;;;1.38;1.27;;;21.80;64.60;;;;;;5366304;26;20016;-74
2024/04/14 09:57:45;;;;;;;4.33;1.30;;;21.80;56.10;;;;;;5367680;26;20008;-74
2024/04/14 10:00:11;;;;;;;1.25;1.15;;;21.70;56.40;;;;;;5367212;26;20015;-74
2024/04/14 10:03:03;;;;;;;1.30;0.85;;;21.80;58.50;;;;;;5368223;26;20037;-73
2024/04/14 10:05:30;;;;;;;2.22;1.08;;;21.90;62.00;;;;;;5394836;26;20364;-73
2024/04/14 10:07:55;;;;;;;1.45;1.00;;;21.90;61.70;;;;;;5366335;26;20001;-74
2024/04/14 10:10:24;;;;;;;2.20;1.10;;;21.90;58.60;;;;;;5372216;26;20000;-74
2024/04/14 10:12:53;;;;;;;1.67;1.05;;;21.80;55.90;;;;;;5369469;26;20245;-74
2024/04/14 10:15:23;;;;;;;1.42;1.33;;;22.00;61.20;;;;;;5380984;26;20006;-75
2024/04/14 10:18:09;;;;;;;1.52;1.23;;;22.10;58.80;;;;;;5366450;26;20747;-74
2024/04/14 10:20:42;;;;;;;1.23;1.13;;;22.10;50.40;;;;;;5373664;26;19996;-74
2024/04/14 10:23:08;;;;;;;1.85;1.38;;;22.20;56.20;;;;;;5376766;26;19993;-75
2024/04/14 10:25:33;;;;;;;1.42;1.33;;;22.30;65.00;;;;;;5373506;26;20072;-74
2024/04/14 10:27:59;;;;;;;1.50;1.00;;;22.40;52.50;;;;;;5369855;26;20003;-74
2024/04/14 10:30:25;;;;;;;1.45;1.35;;;22.50;59.80;;;;;;5372859;26;20008;-72
2024/04/14 10:33:03;;;;;;;1.20;1.10;;;22.50;58.60;;;;;;5370779;26;20019;-74
2024/04/14 10:35:29;;;;;;;1.33;1.20;;;22.50;53.50;;;;;;5365849;26;20081;-73
2024/04/14 10:37:55;;;;;;;1.48;1.25;;;22.40;53.10;;;;;;5366614;26;20075;-75
2024/04/14 10:40:24;;;;;;;1.50;1.13;;;22.60;52.70;;;;;;5376236;26;20563;-75
2024/04/14 10:42:50;;;;;;;1.92;1.50;;;22.70;53.20;;;;;;5368366;26;20002;-74
2024/04/14 10:45:29;;;;;;;1.98;1.40;;;22.70;54.50;;;;;;5368199;26;20746;-74
2024/04/14 10:47:59;;;;;;;1.20;1.10;;;22.90;58.90;;;;;;5369932;26;20000;-74
2024/04/14 10:50:28;;;;;;;3.95;1.58;;;23.10;55.30;;;;;;5372270;26;20029;-75
2024/04/14 10:53:19;;;;;;;1.73;1.40;;;22.90;51.40;;;;;;5368627;26;20019;-75
2024/04/14 10:55:48;;;;;;;1.52;1.38;;;22.90;50.90;;;;;;5366476;26;20392;-75
2024/04/14 10:58:14;;;;;;;1.10;1.10;;;22.70;49.10;;;;;;5368070;26;19996;-75
2024/04/14 11:00:40;;;;;;;4.25;1.38;;;22.90;55.30;;;;;;5366054;26;20022;-75
2024/04/14 11:03:06;;;;;;;1.65;0.90;;;22.90;51.10;;;;;;5371651;26;20004;-74
2024/04/14 11:05:34;;;;;;;2.25;1.40;;;22.90;53.20;;;;;;5363497;26;20358;-73
2024/04/14 11:08:00;;;;;;;1.50;1.40;;;23.00;50.70;;;;;;5370128;26;20011;-73
2024/04/14 11:10:26;;;;;;;1.23;1.13;;;23.10;47.50;;;;;;5372235;26;20055;-72
2024/04/14 11:12:52;;;;;;;3.30;1.55;;;23.00;48.90;;;;;;5369945;26;20076;-73
2024/04/14 11:15:19;;;;;;;3.10;1.60;;;23.00;50.60;;;;;;5369656;26;20458;-73
2024/04/14 11:17:45;;;;;;;2.10;1.38;;;23.20;47.10;;;;;;5372567;26;20000;-74
2024/04/14 11:20:14;;;;;;;2.15;1.38;;;23.20;46.20;;;;;;5369153;26;20635;-74
2024/04/14 11:22:45;;;;;;;1.67;1.55;;;23.30;50.20;;;;;;5360229;26;20009;-73
2024/04/14 11:25:11;;;;;;;2.08;1.42;;;23.30;46.60;;;;;;5371124;26;19996;-74
2024/04/14 11:27:37;;;;;;;1.80;1.35;;;23.30;48.60;;;;;;5367578;26;20077;-73
2024/04/14 11:30:04;;;;;;;1.33;1.08;;;23.30;47.50;;;;;;5368405;26;20008;-73
2024/04/14 11:32:33;;;;;;;1.20;1.10;;;23.30;45.00;;;;;;5361347;26;20000;-73
2024/04/14 11:35:04;;;;;;;1.40;1.30;;;23.40;44.10;;;;;;5369793;26;20004;-73
2024/04/14 11:37:30;;;;;;;1.45;1.23;;;23.40;48.10;;;;;;5372725;26;20035;-73
2024/04/14 11:39:57;;;;;;;5.22;1.75;;;23.40;43.00;;;;;;5372920;26;20001;-74
2024/04/14 11:42:24;;;;;;;2.85;1.50;;;23.70;50.90;;;;;;5374123;26;20004;-75
2024/04/14 11:44:50;;;;;;;1.77;1.07;;;23.60;42.90;;;;;;5366168;26;20008;-74
2024/04/14 11:47:17;;;;;;;2.15;1.42;;;23.70;46.20;;;;;;5365322;26;20007;-75
2024/04/14 11:49:43;;;;;;;1.52;1.42;;;23.60;43.40;;;;;;5363787;26;20012;-75
2024/04/14 11:52:10;;;;;;;3.33;1.55;;;23.60;43.70;;;;;;5377731;26;19996;-75
2024/04/14 11:55:02;;;;;;;2.70;1.40;;;23.50;43.60;;;;;;5375969;26;20499;-75
2024/04/14 11:57:28;;;;;;;2.90;1.17;;;23.40;47.10;;;;;;5361464;26;20579;-75
2024/04/14 11:59:54;;;;;;;1.25;1.15;;;23.60;44.60;;;;;;5375293;26;20020;-75
2024/04/14 12:02:21;;;;;;;3.72;1.30;;;23.50;43.30;;;;;;5376073;26;20008;-74
2024/04/14 12:04:51;;;;;;;1.50;1.40;;;23.50;44.50;;;;;;5375573;26;20713;-74
2024/04/14 12:07:17;;;;;;;1.58;1.35;;;23.40;44.60;;;;;;5373936;26;20008;-75
2024/04/14 12:09:44;;;;;;;2.30;1.30;;;23.40;44.80;;;;;;5369469;26;20006;-76
2024/04/14 12:12:09;;;;;;;1.77;1.60;;;23.60;44.20;;;;;;5372530;26;20004;-75
2024/04/14 12:14:35;;;;;;;1.80;1.65;;;23.60;47.30;;;;;;5369140;26;20255;-75
2024/04/14 12:17:01;;;;;;;1.67;1.13;;;23.70;44.50;;;;;;5376959;26;19996;-74
2024/04/14 12:19:27;;;;;;;1.48;1.38;;;23.70;43.20;;;;;;5363196;26;20327;-75
2024/04/14 12:21:52;;;;;;;2.30;1.52;;;23.70;43.90;;;;;;5375347;26;20010;-74
2024/04/14 12:24:18;;;;;;;2.10;1.30;;;23.80;49.10;;;;;;5368502;26;20004;-73
2024/04/14 12:26:44;;;;;;;1.92;1.55;;;23.70;41.70;;;;;;5372476;26;20080;-73
2024/04/14 12:29:10;;;;;;;2.28;1.70;;;23.80;45.20;;;;;;5376935;26;20142;-74
2024/04/14 12:31:36;;;;;;;2.58;1.40;;;24.00;45.50;;;;;;5365781;26;20012;-73
2024/04/14 12:34:09;;;;;;;3.67;1.50;;;23.90;43.20;;;;;;5370440;26;20490;-74
2024/04/14 12:36:35;;;;;;;1.50;1.40;;;23.90;45.40;;;;;;5376901;26;20320;-74
2024/04/14 12:39:01;;;;;;;3.15;1.30;;;24.10;44.20;;;;;;5383264;26;20001;-73
2024/04/14 12:41:26;;;;;;;2.13;1.70;;;24.20;45.00;;;;;;5396593;26;20004;-73
2024/04/14 12:43:52;;;;;;;2.28;1.60;;;24.00;45.70;;;;;;5382113;26;20025;-75
2024/04/14 12:46:18;;;;;;;2.03;1.85;;;23.80;45.80;;;;;;5382459;26;20011;-74
2024/04/14 12:48:45;;;;;;;8.75;1.83;;;23.70;48.20;;;;;;5387895;26;20058;-74
2024/04/14 12:51:11;;;;;;;3.13;1.65;;;23.90;48.00;;;;;;5375044;26;19992;-72
2024/04/14 12:53:37;;;;;;;5.57;2.10;;;23.90;43.80;;;;;;5381075;26;20062;-72